sensor_id;sensor_type;location;lat;lon;timestamp;P1;durP1;ratioP1;P2;durP2;ratioP2
40154;SDS011;25875;48.202;16.334;2022-09-09T00:01:15;2.92;;;1.85;;
40154;SDS011;25875;48.202;16.334;2022-09-09T00:03:57;2.75;;;1.67;;
40154;SDS011;25875;48.202;16.334;2022-09-09T00:06:28;3.05;;;1.50;;
40154;SDS011;25875;48.202;16.334;2022-09-09T00:09:00;2.55;;;1.83;;
40154;SDS011;25875;48.202;16.334;2022-09-09T00:11:35;2.40;;;1.42;;
40154;SDS011;25875;48.202;16.334;2022-09-09T00:14:10;1.88;;;1.38;;
40154;SDS011;25875;48.202;16.334;2022-09-09T00:16:43;2.38;;;1.60;;
40154;SDS011;25875;48.202;16.334;2022-09-09T00:19:20;3.30;;;2.10;;
40154;SDS011;25875;48.202;16.334;2022-09-09T00:21:53;4.50;;;2.00;;
40154;SDS011;25875;48.202;16.334;2022-09-09T00:24:36;2.97;;;1.30;;
40154;SDS011;25875;48.202;16.334;2022-09-09T00:27:12;2.03;;;1.25;;
40154;SDS011;25875;48.202;16.334;2022-09-09T00:29:47;1.65;;;1.10;;
40154;SDS011;25875;48.202;16.334;2022-09-09T00:32:20;3.47;;;1.60;;
40154;SDS011;25875;48.202;16.334;2022-09-09T00:34:49;2.03;;;1.15;;
40154;SDS011;25875;48.202;16.334;2022-09-09T00:37:21;2.30;;;1.48;;
40154;SDS011;25875;48.202;16.334;2022-09-09T00:39:51;2.97;;;1.60;;
40154;SDS011;25875;48.202;16.334;2022-09-09T00:42:25;2.30;;;1.48;;
40154;SDS011;25875;48.202;16.334;2022-09-09T00:44:58;2.10;;;1.30;;
40154;SDS011;25875;48.202;16.334;2022-09-09T00:47:38;2.83;;;1.40;;
40154;SDS011;25875;48.202;16.334;2022-09-09T00:50:16;2.00;;;1.20;;
40154;SDS011;25875;48.202;16.334;2022-09-09T00:52:57;2.15;;;1.38;;
40154;SDS011;25875;48.202;16.334;2022-09-09T00:55:34;2.05;;;1.40;;
40154;SDS011;25875;48.202;16.334;2022-09-09T00:58:13;2.35;;;1.30;;
40154;SDS011;25875;48.202;16.334;2022-09-09T01:00:42;1.85;;;1.25;;
40154;SDS011;25875;48.202;16.334;2022-09-09T01:03:18;1.65;;;1.15;;
40154;SDS011;25875;48.202;16.334;2022-09-09T01:05:55;1.98;;;1.25;;
40154;SDS011;25875;48.202;16.334;2022-09-09T01:08:38;5.20;;;1.50;;
40154;SDS011;25875;48.202;16.334;2022-09-09T01:11:21;1.95;;;1.40;;
40154;SDS011;25875;48.202;16.334;2022-09-09T01:13:55;2.72;;;1.30;;
40154;SDS011;25875;48.202;16.334;2022-09-09T01:16:28;2.60;;;1.30;;
40154;SDS011;25875;48.202;16.334;2022-09-09T01:18:57;2.92;;;1.23;;
40154;SDS011;25875;48.202;16.334;2022-09-09T01:21:29;3.03;;;1.25;;
40154;SDS011;25875;48.202;16.334;2022-09-09T01:24:19;3.80;;;1.40;;
40154;SDS011;25875;48.202;16.334;2022-09-09T01:26:59;2.25;;;1.38;;
40154;SDS011;25875;48.202;16.334;2022-09-09T01:29:29;3.45;;;1.30;;
40154;SDS011;25875;48.202;16.334;2022-09-09T01:31:57;1.45;;;1.10;;
40154;SDS011;25875;48.202;16.334;2022-09-09T01:34:27;2.83;;;1.88;;
40154;SDS011;25875;48.202;16.334;2022-09-09T01:36:59;2.22;;;1.38;;
40154;SDS011;25875;48.202;16.334;2022-09-09T01:39:30;2.60;;;1.50;;
40154;SDS011;25875;48.202;16.334;2022-09-09T01:42:00;2.42;;;1.45;;
40154;SDS011;25875;48.202;16.334;2022-09-09T01:44:29;2.28;;;1.20;;
40154;SDS011;25875;48.202;16.334;2022-09-09T01:46:57;2.20;;;1.30;;
40154;SDS011;25875;48.202;16.334;2022-09-09T01:49:24;2.63;;;1.48;;
40154;SDS011;25875;48.202;16.334;2022-09-09T01:51:52;2.13;;;1.30;;
40154;SDS011;25875;48.202;16.334;2022-09-09T01:54:21;1.67;;;1.20;;
40154;SDS011;25875;48.202;16.334;2022-09-09T01:56:54;1.73;;;1.13;;
40154;SDS011;25875;48.202;16.334;2022-09-09T01:59:38;2.05;;;1.10;;
40154;SDS011;25875;48.202;16.334;2022-09-09T02:02:17;2.53;;;1.35;;
40154;SDS011;25875;48.202;16.334;2022-09-09T02:04:49;2.60;;;1.20;;
40154;SDS011;25875;48.202;16.334;2022-09-09T02:07:28;2.78;;;1.35;;
40154;SDS011;25875;48.202;16.334;2022-09-09T02:10:14;1.58;;;1.08;;
40154;SDS011;25875;48.202;16.334;2022-09-09T02:12:48;1.80;;;1.45;;
40154;SDS011;25875;48.202;16.334;2022-09-09T02:15:20;2.72;;;1.30;;
40154;SDS011;25875;48.202;16.334;2022-09-09T02:17:53;2.00;;;1.40;;
40154;SDS011;25875;48.202;16.334;2022-09-09T02:20:25;1.63;;;1.17;;
40154;SDS011;25875;48.202;16.334;2022-09-09T02:22:54;2.80;;;1.65;;
40154;SDS011;25875;48.202;16.334;2022-09-09T02:25:23;2.30;;;1.13;;
40154;SDS011;25875;48.202;16.334;2022-09-09T02:27:55;1.90;;;1.17;;
40154;SDS011;25875;48.202;16.334;2022-09-09T02:30:24;2.72;;;1.63;;
40154;SDS011;25875;48.202;16.334;2022-09-09T02:32:56;2.20;;;1.30;;
40154;SDS011;25875;48.202;16.334;2022-09-09T02:35:25;3.22;;;1.20;;
40154;SDS011;25875;48.202;16.334;2022-09-09T02:37:56;3.42;;;1.30;;
40154;SDS011;25875;48.202;16.334;2022-09-09T02:40:29;2.35;;;1.55;;
40154;SDS011;25875;48.202;16.334;2022-09-09T02:42:58;2.72;;;1.60;;
40154;SDS011;25875;48.202;16.334;2022-09-09T02:45:27;1.95;;;1.33;;
40154;SDS011;25875;48.202;16.334;2022-09-09T02:48:03;4.30;;;1.63;;
40154;SDS011;25875;48.202;16.334;2022-09-09T02:50:41;2.20;;;1.30;;
40154;SDS011;25875;48.202;16.334;2022-09-09T02:53:20;1.88;;;1.30;;
40154;SDS011;25875;48.202;16.334;2022-09-09T02:55:52;2.25;;;1.48;;
40154;SDS011;25875;48.202;16.334;2022-09-09T02:58:26;2.50;;;1.47;;
40154;SDS011;25875;48.202;16.334;2022-09-09T03:00:54;2.08;;;1.30;;
40154;SDS011;25875;48.202;16.334;2022-09-09T03:03:23;3.47;;;1.52;;
40154;SDS011;25875;48.202;16.334;2022-09-09T03:05:51;2.20;;;1.30;;
40154;SDS011;25875;48.202;16.334;2022-09-09T03:08:18;2.35;;;1.40;;
40154;SDS011;25875;48.202;16.334;2022-09-09T03:10:45;2.03;;;1.40;;
40154;SDS011;25875;48.202;16.334;2022-09-09T03:13:13;3.90;;;1.40;;
40154;SDS011;25875;48.202;16.334;2022-09-09T03:15:42;2.67;;;1.70;;
40154;SDS011;25875;48.202;16.334;2022-09-09T03:18:09;2.70;;;1.67;;
40154;SDS011;25875;48.202;16.334;2022-09-09T03:20:36;4.05;;;1.70;;
40154;SDS011;25875;48.202;16.334;2022-09-09T03:23:04;3.05;;;1.52;;
40154;SDS011;25875;48.202;16.334;2022-09-09T03:25:31;2.92;;;2.40;;
40154;SDS011;25875;48.202;16.334;2022-09-09T03:27:59;3.17;;;1.70;;
40154;SDS011;25875;48.202;16.334;2022-09-09T03:30:26;3.17;;;1.92;;
40154;SDS011;25875;48.202;16.334;2022-09-09T03:32:56;6.15;;;1.80;;
40154;SDS011;25875;48.202;16.334;2022-09-09T03:35:23;3.20;;;1.70;;
40154;SDS011;25875;48.202;16.334;2022-09-09T03:37:51;2.90;;;1.65;;
40154;SDS011;25875;48.202;16.334;2022-09-09T03:40:18;3.80;;;1.65;;
40154;SDS011;25875;48.202;16.334;2022-09-09T03:42:45;2.13;;;1.50;;
40154;SDS011;25875;48.202;16.334;2022-09-09T03:45:13;4.45;;;1.73;;
40154;SDS011;25875;48.202;16.334;2022-09-09T03:47:41;2.78;;;1.63;;
40154;SDS011;25875;48.202;16.334;2022-09-09T03:50:10;4.05;;;1.80;;
40154;SDS011;25875;48.202;16.334;2022-09-09T03:52:38;3.45;;;1.95;;
40154;SDS011;25875;48.202;16.334;2022-09-09T03:55:07;4.18;;;1.70;;
40154;SDS011;25875;48.202;16.334;2022-09-09T03:57:35;2.33;;;1.45;;
40154;SDS011;25875;48.202;16.334;2022-09-09T04:00:03;2.78;;;1.77;;
40154;SDS011;25875;48.202;16.334;2022-09-09T04:02:30;2.65;;;1.63;;
40154;SDS011;25875;48.202;16.334;2022-09-09T04:04:58;4.38;;;2.28;;
40154;SDS011;25875;48.202;16.334;2022-09-09T04:07:26;3.35;;;1.77;;
40154;SDS011;25875;48.202;16.334;2022-09-09T04:09:54;3.38;;;2.40;;
40154;SDS011;25875;48.202;16.334;2022-09-09T04:12:21;4.53;;;2.30;;
40154;SDS011;25875;48.202;16.334;2022-09-09T04:14:48;2.63;;;1.85;;
40154;SDS011;25875;48.202;16.334;2022-09-09T04:17:15;2.90;;;1.80;;
40154;SDS011;25875;48.202;16.334;2022-09-09T04:19:43;3.45;;;1.77;;
40154;SDS011;25875;48.202;16.334;2022-09-09T04:22:11;3.50;;;2.05;;
40154;SDS011;25875;48.202;16.334;2022-09-09T04:24:39;2.47;;;1.77;;
40154;SDS011;25875;48.202;16.334;2022-09-09T04:27:07;2.53;;;1.67;;
40154;SDS011;25875;48.202;16.334;2022-09-09T04:29:34;2.67;;;1.80;;
40154;SDS011;25875;48.202;16.334;2022-09-09T04:32:01;4.55;;;1.95;;
40154;SDS011;25875;48.202;16.334;2022-09-09T04:34:29;3.75;;;2.38;;
40154;SDS011;25875;48.202;16.334;2022-09-09T04:36:56;3.03;;;1.60;;
40154;SDS011;25875;48.202;16.334;2022-09-09T04:39:24;5.43;;;3.20;;
40154;SDS011;25875;48.202;16.334;2022-09-09T04:41:53;4.00;;;1.92;;
40154;SDS011;25875;48.202;16.334;2022-09-09T04:44:21;3.47;;;1.90;;
40154;SDS011;25875;48.202;16.334;2022-09-09T04:46:48;2.92;;;1.80;;
40154;SDS011;25875;48.202;16.334;2022-09-09T04:49:15;2.83;;;1.92;;
40154;SDS011;25875;48.202;16.334;2022-09-09T04:51:43;2.55;;;1.80;;
40154;SDS011;25875;48.202;16.334;2022-09-09T04:54:11;2.85;;;1.88;;
40154;SDS011;25875;48.202;16.334;2022-09-09T04:56:38;4.38;;;2.20;;
40154;SDS011;25875;48.202;16.334;2022-09-09T04:59:09;2.90;;;1.60;;
40154;SDS011;25875;48.202;16.334;2022-09-09T05:01:36;3.20;;;1.83;;
40154;SDS011;25875;48.202;16.334;2022-09-09T05:04:03;3.92;;;1.92;;
40154;SDS011;25875;48.202;16.334;2022-09-09T05:06:31;3.58;;;2.13;;
40154;SDS011;25875;48.202;16.334;2022-09-09T05:08:58;3.42;;;1.95;;
40154;SDS011;25875;48.202;16.334;2022-09-09T05:11:26;3.67;;;2.53;;
40154;SDS011;25875;48.202;16.334;2022-09-09T05:13:55;3.33;;;2.13;;
40154;SDS011;25875;48.202;16.334;2022-09-09T05:16:24;5.03;;;2.00;;
40154;SDS011;25875;48.202;16.334;2022-09-09T05:18:52;3.75;;;2.38;;
40154;SDS011;25875;48.202;16.334;2022-09-09T05:21:20;4.13;;;2.10;;
40154;SDS011;25875;48.202;16.334;2022-09-09T05:23:49;7.45;;;2.10;;
40154;SDS011;25875;48.202;16.334;2022-09-09T05:26:17;3.60;;;2.10;;
40154;SDS011;25875;48.202;16.334;2022-09-09T05:28:45;3.35;;;1.92;;
40154;SDS011;25875;48.202;16.334;2022-09-09T05:31:14;5.10;;;2.35;;
40154;SDS011;25875;48.202;16.334;2022-09-09T05:33:44;5.53;;;2.50;;
40154;SDS011;25875;48.202;16.334;2022-09-09T05:36:14;5.00;;;2.63;;
40154;SDS011;25875;48.202;16.334;2022-09-09T05:38:42;7.38;;;2.45;;
40154;SDS011;25875;48.202;16.334;2022-09-09T05:41:11;5.22;;;2.58;;
40154;SDS011;25875;48.202;16.334;2022-09-09T05:43:41;3.67;;;2.60;;
40154;SDS011;25875;48.202;16.334;2022-09-09T05:46:10;6.55;;;2.50;;
40154;SDS011;25875;48.202;16.334;2022-09-09T05:48:39;4.57;;;2.53;;
40154;SDS011;25875;48.202;16.334;2022-09-09T05:51:09;6.85;;;3.28;;
40154;SDS011;25875;48.202;16.334;2022-09-09T05:53:38;3.55;;;2.30;;
40154;SDS011;25875;48.202;16.334;2022-09-09T05:56:07;3.47;;;2.67;;
40154;SDS011;25875;48.202;16.334;2022-09-09T05:58:36;9.38;;;3.30;;
40154;SDS011;25875;48.202;16.334;2022-09-09T06:01:05;5.47;;;2.38;;
40154;SDS011;25875;48.202;16.334;2022-09-09T06:03:34;5.85;;;3.00;;
40154;SDS011;25875;48.202;16.334;2022-09-09T06:06:03;10.65;;;5.35;;
40154;SDS011;25875;48.202;16.334;2022-09-09T06:08:33;6.25;;;3.90;;
40154;SDS011;25875;48.202;16.334;2022-09-09T06:11:02;7.88;;;2.97;;
40154;SDS011;25875;48.202;16.334;2022-09-09T06:13:31;7.38;;;3.20;;
40154;SDS011;25875;48.202;16.334;2022-09-09T06:15:59;5.28;;;3.03;;
40154;SDS011;25875;48.202;16.334;2022-09-09T06:18:26;6.25;;;2.70;;
40154;SDS011;25875;48.202;16.334;2022-09-09T06:20:55;6.65;;;3.20;;
40154;SDS011;25875;48.202;16.334;2022-09-09T06:23:24;3.70;;;2.42;;
40154;SDS011;25875;48.202;16.334;2022-09-09T06:25:59;3.80;;;2.50;;
40154;SDS011;25875;48.202;16.334;2022-09-09T06:28:28;5.47;;;3.15;;
40154;SDS011;25875;48.202;16.334;2022-09-09T06:30:57;4.43;;;2.90;;
40154;SDS011;25875;48.202;16.334;2022-09-09T06:33:25;3.35;;;2.80;;
40154;SDS011;25875;48.202;16.334;2022-09-09T06:35:53;4.25;;;2.67;;
40154;SDS011;25875;48.202;16.334;2022-09-09T06:38:22;5.28;;;2.88;;
40154;SDS011;25875;48.202;16.334;2022-09-09T06:40:52;4.70;;;2.60;;
40154;SDS011;25875;48.202;16.334;2022-09-09T06:43:21;3.97;;;2.88;;
40154;SDS011;25875;48.202;16.334;2022-09-09T06:45:55;6.18;;;3.00;;
40154;SDS011;25875;48.202;16.334;2022-09-09T06:48:22;4.88;;;3.05;;
40154;SDS011;25875;48.202;16.334;2022-09-09T06:50:51;4.07;;;2.47;;
40154;SDS011;25875;48.202;16.334;2022-09-09T06:53:26;3.72;;;2.42;;
40154;SDS011;25875;48.202;16.334;2022-09-09T06:55:55;4.60;;;3.70;;
40154;SDS011;25875;48.202;16.334;2022-09-09T06:58:22;4.15;;;3.22;;
40154;SDS011;25875;48.202;16.334;2022-09-09T07:00:50;5.10;;;3.10;;
40154;SDS011;25875;48.202;16.334;2022-09-09T07:03:17;5.60;;;2.78;;
40154;SDS011;25875;48.202;16.334;2022-09-09T07:05:53;4.47;;;3.05;;
40154;SDS011;25875;48.202;16.334;2022-09-09T07:08:21;4.85;;;2.53;;
40154;SDS011;25875;48.202;16.334;2022-09-09T07:10:50;4.78;;;3.08;;
40154;SDS011;25875;48.202;16.334;2022-09-09T07:13:23;4.60;;;2.47;;
40154;SDS011;25875;48.202;16.334;2022-09-09T07:15:50;5.57;;;2.75;;
40154;SDS011;25875;48.202;16.334;2022-09-09T07:18:18;4.85;;;3.45;;
40154;SDS011;25875;48.202;16.334;2022-09-09T07:20:52;4.43;;;3.03;;
40154;SDS011;25875;48.202;16.334;2022-09-09T07:23:20;5.20;;;2.85;;
40154;SDS011;25875;48.202;16.334;2022-09-09T07:25:47;5.05;;;2.47;;
40154;SDS011;25875;48.202;16.334;2022-09-09T07:28:15;5.38;;;2.80;;
40154;SDS011;25875;48.202;16.334;2022-09-09T07:30:45;6.72;;;2.38;;
40154;SDS011;25875;48.202;16.334;2022-09-09T07:33:20;6.53;;;2.67;;
40154;SDS011;25875;48.202;16.334;2022-09-09T07:35:47;6.05;;;2.53;;
40154;SDS011;25875;48.202;16.334;2022-09-09T07:38:14;13.60;;;3.03;;
40154;SDS011;25875;48.202;16.334;2022-09-09T07:40:42;6.07;;;3.10;;
40154;SDS011;25875;48.202;16.334;2022-09-09T07:43:10;5.43;;;2.80;;
40154;SDS011;25875;48.202;16.334;2022-09-09T07:45:37;6.85;;;2.63;;
40154;SDS011;25875;48.202;16.334;2022-09-09T07:48:08;3.25;;;2.13;;
40154;SDS011;25875;48.202;16.334;2022-09-09T07:50:36;4.68;;;2.65;;
40154;SDS011;25875;48.202;16.334;2022-09-09T07:53:05;6.30;;;2.40;;
40154;SDS011;25875;48.202;16.334;2022-09-09T07:55:32;6.45;;;3.65;;
40154;SDS011;25875;48.202;16.334;2022-09-09T07:57:59;9.45;;;3.25;;
40154;SDS011;25875;48.202;16.334;2022-09-09T08:00:27;5.22;;;3.08;;
40154;SDS011;25875;48.202;16.334;2022-09-09T08:02:54;5.28;;;3.10;;
40154;SDS011;25875;48.202;16.334;2022-09-09T08:05:23;5.47;;;3.30;;
40154;SDS011;25875;48.202;16.334;2022-09-09T08:07:50;6.75;;;3.28;;
40154;SDS011;25875;48.202;16.334;2022-09-09T08:10:18;12.88;;;3.50;;
40154;SDS011;25875;48.202;16.334;2022-09-09T08:12:46;5.45;;;3.22;;
40154;SDS011;25875;48.202;16.334;2022-09-09T08:15:14;5.68;;;3.50;;
40154;SDS011;25875;48.202;16.334;2022-09-09T08:17:42;4.47;;;3.33;;
40154;SDS011;25875;48.202;16.334;2022-09-09T08:20:09;4.20;;;3.30;;
40154;SDS011;25875;48.202;16.334;2022-09-09T08:22:38;7.03;;;3.25;;
40154;SDS011;25875;48.202;16.334;2022-09-09T08:25:05;3.92;;;2.55;;
40154;SDS011;25875;48.202;16.334;2022-09-09T08:27:34;6.43;;;3.30;;
40154;SDS011;25875;48.202;16.334;2022-09-09T08:30:01;5.55;;;3.03;;
40154;SDS011;25875;48.202;16.334;2022-09-09T08:32:28;4.85;;;3.05;;
40154;SDS011;25875;48.202;16.334;2022-09-09T08:34:55;4.93;;;2.65;;
40154;SDS011;25875;48.202;16.334;2022-09-09T08:37:23;3.72;;;2.80;;
40154;SDS011;25875;48.202;16.334;2022-09-09T08:39:52;5.30;;;2.97;;
40154;SDS011;25875;48.202;16.334;2022-09-09T08:42:31;5.60;;;2.80;;
40154;SDS011;25875;48.202;16.334;2022-09-09T08:45:23;5.45;;;2.78;;
40154;SDS011;25875;48.202;16.334;2022-09-09T08:48:00;6.07;;;2.53;;
40154;SDS011;25875;48.202;16.334;2022-09-09T08:50:36;4.50;;;2.38;;
40154;SDS011;25875;48.202;16.334;2022-09-09T08:53:09;6.78;;;2.38;;
40154;SDS011;25875;48.202;16.334;2022-09-09T08:55:44;3.60;;;2.40;;
40154;SDS011;25875;48.202;16.334;2022-09-09T08:58:15;6.55;;;2.60;;
40154;SDS011;25875;48.202;16.334;2022-09-09T09:00:52;4.82;;;2.75;;
40154;SDS011;25875;48.202;16.334;2022-09-09T09:03:29;5.03;;;2.30;;
40154;SDS011;25875;48.202;16.334;2022-09-09T09:06:06;2.75;;;1.80;;
40154;SDS011;25875;48.202;16.334;2022-09-09T09:11:23;3.45;;;2.17;;
40154;SDS011;25875;48.202;16.334;2022-09-09T09:13:52;4.20;;;1.83;;
40154;SDS011;25875;48.202;16.334;2022-09-09T09:16:25;5.05;;;2.53;;
40154;SDS011;25875;48.202;16.334;2022-09-09T09:18:59;4.57;;;2.10;;
40154;SDS011;25875;48.202;16.334;2022-09-09T09:21:29;6.50;;;2.30;;
40154;SDS011;25875;48.202;16.334;2022-09-09T09:24:03;3.63;;;2.00;;
40154;SDS011;25875;48.202;16.334;2022-09-09T09:26:36;2.38;;;1.45;;
40154;SDS011;25875;48.202;16.334;2022-09-09T09:29:08;4.43;;;1.85;;
40154;SDS011;25875;48.202;16.334;2022-09-09T09:31:41;2.90;;;1.60;;
40154;SDS011;25875;48.202;16.334;2022-09-09T09:34:13;3.75;;;2.03;;
40154;SDS011;25875;48.202;16.334;2022-09-09T09:36:41;3.55;;;1.85;;
40154;SDS011;25875;48.202;16.334;2022-09-09T09:39:21;2.92;;;1.80;;
40154;SDS011;25875;48.202;16.334;2022-09-09T09:41:51;3.42;;;1.70;;
40154;SDS011;25875;48.202;16.334;2022-09-09T09:44:24;7.32;;;2.00;;
40154;SDS011;25875;48.202;16.334;2022-09-09T09:47:04;3.27;;;2.03;;
40154;SDS011;25875;48.202;16.334;2022-09-09T09:49:32;2.63;;;1.60;;
40154;SDS011;25875;48.202;16.334;2022-09-09T09:52:00;4.00;;;2.00;;
40154;SDS011;25875;48.202;16.334;2022-09-09T09:54:28;3.38;;;2.25;;
40154;SDS011;25875;48.202;16.334;2022-09-09T09:57:08;3.90;;;2.13;;
40154;SDS011;25875;48.202;16.334;2022-09-09T09:59:36;4.05;;;1.75;;
40154;SDS011;25875;48.202;16.334;2022-09-09T10:02:06;3.20;;;1.80;;
40154;SDS011;25875;48.202;16.334;2022-09-09T10:04:44;2.92;;;1.90;;
40154;SDS011;25875;48.202;16.334;2022-09-09T10:07:12;3.75;;;1.73;;
40154;SDS011;25875;48.202;16.334;2022-09-09T10:09:43;3.13;;;1.90;;
40154;SDS011;25875;48.202;16.334;2022-09-09T10:12:15;3.00;;;1.65;;
40154;SDS011;25875;48.202;16.334;2022-09-09T10:14:57;3.08;;;1.90;;
40154;SDS011;25875;48.202;16.334;2022-09-09T10:17:32;3.60;;;1.83;;
40154;SDS011;25875;48.202;16.334;2022-09-09T10:20:15;2.92;;;1.55;;
40154;SDS011;25875;48.202;16.334;2022-09-09T10:22:51;4.05;;;2.42;;
40154;SDS011;25875;48.202;16.334;2022-09-09T10:25:27;4.15;;;2.08;;
40154;SDS011;25875;48.202;16.334;2022-09-09T10:28:22;3.58;;;1.85;;
40154;SDS011;25875;48.202;16.334;2022-09-09T10:31:18;3.03;;;1.83;;
40154;SDS011;25875;48.202;16.334;2022-09-09T10:33:56;3.08;;;1.60;;
40154;SDS011;25875;48.202;16.334;2022-09-09T10:36:33;4.55;;;2.20;;
40154;SDS011;25875;48.202;16.334;2022-09-09T10:39:03;3.95;;;2.05;;
40154;SDS011;25875;48.202;16.334;2022-09-09T10:41:38;3.67;;;1.83;;
40154;SDS011;25875;48.202;16.334;2022-09-09T10:44:33;4.25;;;2.42;;
40154;SDS011;25875;48.202;16.334;2022-09-09T10:50:18;4.32;;;2.20;;
40154;SDS011;25875;48.202;16.334;2022-09-09T10:53:00;3.80;;;2.33;;
40154;SDS011;25875;48.202;16.334;2022-09-09T10:55:37;4.47;;;2.67;;
40154;SDS011;25875;48.202;16.334;2022-09-09T10:58:10;4.38;;;2.75;;
40154;SDS011;25875;48.202;16.334;2022-09-09T11:00:43;4.97;;;2.47;;
40154;SDS011;25875;48.202;16.334;2022-09-09T11:03:14;3.08;;;2.20;;
40154;SDS011;25875;48.202;16.334;2022-09-09T11:05:47;2.95;;;2.08;;
40154;SDS011;25875;48.202;16.334;2022-09-09T11:08:20;3.40;;;1.90;;
40154;SDS011;25875;48.202;16.334;2022-09-09T11:10:50;4.15;;;2.22;;
40154;SDS011;25875;48.202;16.334;2022-09-09T11:13:22;3.50;;;2.22;;
40154;SDS011;25875;48.202;16.334;2022-09-09T11:15:58;3.72;;;3.00;;
40154;SDS011;25875;48.202;16.334;2022-09-09T11:18:28;3.63;;;1.80;;
40154;SDS011;25875;48.202;16.334;2022-09-09T11:20:58;5.18;;;1.75;;
40154;SDS011;25875;48.202;16.334;2022-09-09T11:23:32;2.70;;;1.60;;
40154;SDS011;25875;48.202;16.334;2022-09-09T11:26:06;2.72;;;1.60;;
40154;SDS011;25875;48.202;16.334;2022-09-09T11:28:40;3.95;;;2.25;;
40154;SDS011;25875;48.202;16.334;2022-09-09T11:31:26;3.00;;;1.98;;
40154;SDS011;25875;48.202;16.334;2022-09-09T11:34:10;2.80;;;1.60;;
40154;SDS011;25875;48.202;16.334;2022-09-09T11:36:54;3.50;;;2.30;;
40154;SDS011;25875;48.202;16.334;2022-09-09T11:39:43;3.03;;;1.85;;
40154;SDS011;25875;48.202;16.334;2022-09-09T11:42:20;3.00;;;1.85;;
40154;SDS011;25875;48.202;16.334;2022-09-09T11:44:50;3.25;;;2.20;;
40154;SDS011;25875;48.202;16.334;2022-09-09T11:47:20;3.83;;;2.22;;
40154;SDS011;25875;48.202;16.334;2022-09-09T11:49:54;5.80;;;2.17;;
40154;SDS011;25875;48.202;16.334;2022-09-09T11:52:36;5.22;;;2.25;;
40154;SDS011;25875;48.202;16.334;2022-09-09T11:55:08;3.97;;;2.72;;
40154;SDS011;25875;48.202;16.334;2022-09-09T11:57:37;3.90;;;1.95;;
40154;SDS011;25875;48.202;16.334;2022-09-09T12:00:06;2.70;;;2.00;;
40154;SDS011;25875;48.202;16.334;2022-09-09T12:02:36;3.15;;;1.98;;
40154;SDS011;25875;48.202;16.334;2022-09-09T12:05:04;3.22;;;2.10;;
40154;SDS011;25875;48.202;16.334;2022-09-09T12:07:35;4.25;;;2.28;;
40154;SDS011;25875;48.202;16.334;2022-09-09T12:10:18;3.60;;;1.80;;
40154;SDS011;25875;48.202;16.334;2022-09-09T12:12:49;3.72;;;1.90;;
40154;SDS011;25875;48.202;16.334;2022-09-09T12:15:18;3.13;;;1.40;;
40154;SDS011;25875;48.202;16.334;2022-09-09T12:17:53;3.35;;;1.80;;
40154;SDS011;25875;48.202;16.334;2022-09-09T12:20:22;4.97;;;2.28;;
40154;SDS011;25875;48.202;16.334;2022-09-09T12:23:11;3.17;;;2.08;;
40154;SDS011;25875;48.202;16.334;2022-09-09T12:25:48;3.78;;;1.70;;
40154;SDS011;25875;48.202;16.334;2022-09-09T12:28:25;3.70;;;1.50;;
40154;SDS011;25875;48.202;16.334;2022-09-09T12:31:04;3.80;;;1.92;;
40154;SDS011;25875;48.202;16.334;2022-09-09T12:33:40;3.72;;;1.67;;
40154;SDS011;25875;48.202;16.334;2022-09-09T12:36:15;5.25;;;1.77;;
40154;SDS011;25875;48.202;16.334;2022-09-09T12:38:45;3.78;;;1.60;;
40154;SDS011;25875;48.202;16.334;2022-09-09T12:41:18;3.08;;;1.67;;
40154;SDS011;25875;48.202;16.334;2022-09-09T12:43:47;3.20;;;2.00;;
40154;SDS011;25875;48.202;16.334;2022-09-09T12:46:19;2.83;;;1.70;;
40154;SDS011;25875;48.202;16.334;2022-09-09T12:48:57;2.08;;;1.33;;
40154;SDS011;25875;48.202;16.334;2022-09-09T12:51:25;2.88;;;1.73;;
40154;SDS011;25875;48.202;16.334;2022-09-09T12:53:55;3.05;;;2.47;;
40154;SDS011;25875;48.202;16.334;2022-09-09T12:56:24;3.35;;;2.03;;
40154;SDS011;25875;48.202;16.334;2022-09-09T12:58:53;2.50;;;1.73;;
40154;SDS011;25875;48.202;16.334;2022-09-09T13:01:23;3.35;;;1.98;;
40154;SDS011;25875;48.202;16.334;2022-09-09T13:03:51;2.88;;;1.95;;
40154;SDS011;25875;48.202;16.334;2022-09-09T13:06:22;3.30;;;2.30;;
40154;SDS011;25875;48.202;16.334;2022-09-09T13:08:50;4.30;;;2.35;;
40154;SDS011;25875;48.202;16.334;2022-09-09T13:11:18;3.22;;;2.17;;
40154;SDS011;25875;48.202;16.334;2022-09-09T13:13:52;3.50;;;2.13;;
40154;SDS011;25875;48.202;16.334;2022-09-09T13:16:22;3.08;;;1.95;;
40154;SDS011;25875;48.202;16.334;2022-09-09T13:18:52;3.40;;;2.15;;
40154;SDS011;25875;48.202;16.334;2022-09-09T13:21:32;3.20;;;2.20;;
40154;SDS011;25875;48.202;16.334;2022-09-09T13:24:00;5.22;;;2.80;;
40154;SDS011;25875;48.202;16.334;2022-09-09T13:26:29;2.53;;;1.80;;
40154;SDS011;25875;48.202;16.334;2022-09-09T13:29:07;4.38;;;1.90;;
40154;SDS011;25875;48.202;16.334;2022-09-09T13:31:43;4.55;;;2.50;;
40154;SDS011;25875;48.202;16.334;2022-09-09T13:34:12;5.38;;;2.58;;
40154;SDS011;25875;48.202;16.334;2022-09-09T13:36:46;3.65;;;2.28;;
40154;SDS011;25875;48.202;16.334;2022-09-09T13:39:15;4.95;;;2.50;;
40154;SDS011;25875;48.202;16.334;2022-09-09T13:41:45;5.00;;;2.25;;
40154;SDS011;25875;48.202;16.334;2022-09-09T13:44:17;3.08;;;1.80;;
40154;SDS011;25875;48.202;16.334;2022-09-09T13:46:58;3.90;;;1.77;;
40154;SDS011;25875;48.202;16.334;2022-09-09T13:49:28;2.92;;;1.80;;
40154;SDS011;25875;48.202;16.334;2022-09-09T13:52:04;2.45;;;1.77;;
40154;SDS011;25875;48.202;16.334;2022-09-09T13:54:35;3.38;;;2.38;;
40154;SDS011;25875;48.202;16.334;2022-09-09T13:57:02;4.68;;;2.22;;
40154;SDS011;25875;48.202;16.334;2022-09-09T13:59:30;3.80;;;3.20;;
40154;SDS011;25875;48.202;16.334;2022-09-09T14:01:58;2.90;;;2.20;;
40154;SDS011;25875;48.202;16.334;2022-09-09T14:04:27;3.10;;;1.95;;
40154;SDS011;25875;48.202;16.334;2022-09-09T14:06:54;3.17;;;1.95;;
40154;SDS011;25875;48.202;16.334;2022-09-09T14:09:26;5.22;;;3.30;;
40154;SDS011;25875;48.202;16.334;2022-09-09T14:11:54;5.43;;;3.47;;
40154;SDS011;25875;48.202;16.334;2022-09-09T14:14:21;6.88;;;3.67;;
40154;SDS011;25875;48.202;16.334;2022-09-09T14:16:48;4.93;;;3.15;;
40154;SDS011;25875;48.202;16.334;2022-09-09T14:19:16;5.30;;;2.92;;
40154;SDS011;25875;48.202;16.334;2022-09-09T14:21:44;3.75;;;2.47;;
40154;SDS011;25875;48.202;16.334;2022-09-09T14:24:11;3.78;;;2.40;;
40154;SDS011;25875;48.202;16.334;2022-09-09T14:26:41;2.65;;;1.50;;
40154;SDS011;25875;48.202;16.334;2022-09-09T14:29:08;3.35;;;1.80;;
40154;SDS011;25875;48.202;16.334;2022-09-09T14:31:35;2.60;;;1.80;;
40154;SDS011;25875;48.202;16.334;2022-09-09T14:34:02;4.68;;;2.05;;
40154;SDS011;25875;48.202;16.334;2022-09-09T14:36:30;2.50;;;1.77;;
40154;SDS011;25875;48.202;16.334;2022-09-09T14:38:57;3.08;;;1.90;;
40154;SDS011;25875;48.202;16.334;2022-09-09T14:41:24;4.43;;;3.10;;
40154;SDS011;25875;48.202;16.334;2022-09-09T14:43:53;4.00;;;2.70;;
40154;SDS011;25875;48.202;16.334;2022-09-09T14:46:20;4.95;;;2.75;;
40154;SDS011;25875;48.202;16.334;2022-09-09T14:48:47;5.20;;;2.72;;
40154;SDS011;25875;48.202;16.334;2022-09-09T14:51:16;5.05;;;3.08;;
40154;SDS011;25875;48.202;16.334;2022-09-09T14:53:45;8.80;;;4.53;;
40154;SDS011;25875;48.202;16.334;2022-09-09T14:56:13;4.82;;;3.38;;
40154;SDS011;25875;48.202;16.334;2022-09-09T14:58:43;6.00;;;4.25;;
40154;SDS011;25875;48.202;16.334;2022-09-09T15:01:15;5.10;;;4.03;;
40154;SDS011;25875;48.202;16.334;2022-09-09T15:03:48;4.65;;;3.45;;